createdAt,value
2022-09-12T00:04:24.618Z,100716.94
2022-09-12T00:09:28.932Z,100708.97
2022-09-12T00:14:31.545Z,100703.94
2022-09-12T00:19:34.085Z,100700.91
2022-09-12T00:24:37.883Z,100695.66
2022-09-12T00:29:40.395Z,100706.00
2022-09-12T00:34:43.003Z,100694.44
2022-09-12T00:39:47.217Z,100697.50
2022-09-12T00:44:52.833Z,100693.56
2022-09-12T00:50:02.193Z,100687.81
2022-09-12T00:55:11.556Z,100692.03
2022-09-12T01:00:17.224Z,100685.47
2022-09-12T01:05:20.558Z,100675.66
2022-09-12T01:10:25.395Z,100668.75
2022-09-12T01:15:28.136Z,100663.69
2022-09-12T01:20:47.244Z,100673.59
2022-09-12T01:26:03.980Z,100674.44
2022-09-12T01:31:12.955Z,100668.53
2022-09-12T01:36:34.463Z,100672.44
2022-09-12T01:41:49.980Z,100678.78
2022-09-12T01:46:59.111Z,100670.63
2022-09-12T01:52:07.163Z,100677.22
2022-09-12T01:57:15.111Z,100669.78
2022-09-12T02:02:24.104Z,100663.34
2022-09-12T02:07:33.000Z,100664.09
2022-09-12T02:12:42.314Z,100663.31
2022-09-12T02:17:50.663Z,100659.03
2022-09-12T02:22:55.917Z,100649.50
2022-09-12T02:28:02.468Z,100653.84
2022-09-12T02:33:12.541Z,100650.03
2022-09-12T02:38:24.782Z,100638.41
2022-09-12T02:43:27.637Z,100644.03
2022-09-12T02:48:35.431Z,100645.88
2022-09-12T02:53:38.971Z,100657.91
2022-09-12T02:58:41.644Z,100655.00
2022-09-12T03:04:04.292Z,100650.38
2022-09-12T03:09:13.240Z,100641.56
2022-09-12T03:14:28.168Z,100654.19
2022-09-12T03:19:39.950Z,100663.81
2022-09-12T03:24:53.070Z,100654.38
2022-09-12T03:30:00.100Z,100652.44
2022-09-12T03:35:05.524Z,100635.03
2022-09-12T03:40:10.212Z,100645.63
2022-09-12T03:45:13.168Z,100643.59
2022-09-12T03:50:17.136Z,100645.97
2022-09-12T03:55:19.794Z,100649.66
2022-09-12T04:00:22.655Z,100659.97
2022-09-12T04:05:27.098Z,100663.69
2022-09-12T04:10:29.505Z,100655.38
2022-09-12T04:15:32.324Z,100663.59
2022-09-12T04:20:37.362Z,100648.63
2022-09-12T04:25:39.866Z,100664.44
2022-09-12T04:30:42.550Z,100656.06
2022-09-12T04:35:46.365Z,100644.06
2022-09-12T04:40:48.809Z,100653.78
2022-09-12T04:45:51.401Z,100663.31
2022-09-12T04:50:55.351Z,100643.78
2022-09-12T04:56:03.181Z,100643.91
2022-09-12T05:01:06.940Z,100662.84
2022-09-12T05:06:15.800Z,100673.22
2022-09-12T05:11:24.177Z,100668.53
2022-09-12T05:16:29.382Z,100672.09
2022-09-12T05:21:33.516Z,100672.78
2022-09-12T05:26:36.038Z,100674.81
2022-09-12T05:31:39.111Z,100668.47
2022-09-12T05:36:42.966Z,100682.03
2022-09-12T05:41:45.703Z,100680.19
2022-09-12T05:46:50.798Z,100696.47
2022-09-12T05:51:54.602Z,100699.19
2022-09-12T05:56:57.178Z,100696.53
2022-09-12T06:02:00.360Z,100696.69
2022-09-12T06:07:04.851Z,100694.84
2022-09-12T06:12:08.684Z,100689.84
2022-09-12T06:17:11.209Z,100696.88
2022-09-12T06:22:14.998Z,100692.84
2022-09-12T06:27:17.457Z,100691.94
2022-09-12T06:32:20.240Z,100693.72
2022-09-12T06:37:24.037Z,100700.84
2022-09-12T06:42:26.541Z,100696.06
2022-09-12T06:47:29.518Z,100686.72
2022-09-12T06:52:33.323Z,100696.44
2022-09-12T06:57:36.912Z,100696.72
2022-09-12T07:02:39.484Z,100694.09
2022-09-12T07:07:43.335Z,100699.09
2022-09-12T07:12:45.822Z,100694.69
2022-09-12T07:17:48.263Z,100698.34
2022-09-12T07:22:52.886Z,100696.50
2022-09-12T07:27:55.641Z,100697.34
2022-09-12T07:32:58.062Z,100693.75
2022-09-12T07:38:01.914Z,100692.03
2022-09-12T07:43:04.392Z,100689.72
2022-09-12T07:48:06.795Z,100689.44
2022-09-12T07:53:11.274Z,100689.28
2022-09-12T07:58:13.739Z,100701.53
2022-09-12T08:03:16.344Z,100699.69
2022-09-12T08:08:20.526Z,100698.22
2022-09-12T08:13:23.060Z,100704.84
2022-09-12T08:18:25.617Z,100701.19
2022-09-12T08:23:30.654Z,100701.19
2022-09-12T08:28:35.181Z,100694.81
2022-09-12T08:33:38.038Z,100696.56
2022-09-12T08:38:44.259Z,100704.72
2022-09-12T08:44:05.131Z,100696.41
2022-09-12T08:49:12.713Z,100698.50
2022-09-12T08:54:21.871Z,100698.16
2022-09-12T08:59:25.670Z,100685.44
2022-09-12T09:04:50.243Z,100682.66
2022-09-12T09:10:09.211Z,100682.09
2022-09-12T09:15:42.036Z,100673.81
2022-09-12T09:20:49.540Z,100657.34
2022-09-12T09:25:59.351Z,100669.00
2022-09-12T09:31:02.924Z,100667.38
2022-09-12T09:36:16.932Z,100661.69
2022-09-12T09:41:36.161Z,100662.00
2022-09-12T09:46:38.743Z,100659.72
2022-09-12T09:51:43.601Z,100656.31
2022-09-12T09:56:47.820Z,100654.06
2022-09-12T10:01:54.829Z,100646.53
2022-09-12T10:06:59.684Z,100643.09
2022-09-12T10:12:22.283Z,100638.94
2022-09-12T10:17:33.808Z,100630.47
2022-09-12T10:22:36.915Z,100631.28
2022-09-12T10:27:42.925Z,100625.78
2022-09-12T10:32:50.621Z,100622.50
2022-09-12T10:37:55.866Z,100619.97
2022-09-12T10:43:01.255Z,100614.38
2022-09-12T10:48:21.781Z,100619.31
2022-09-12T10:53:28.970Z,100609.25
2022-09-12T10:58:53.656Z,100612.66
2022-09-12T11:04:10.837Z,100611.56
2022-09-12T11:09:26.225Z,100610.13
2022-09-12T11:14:52.878Z,100596.63
2022-09-12T11:20:09.564Z,100593.84
2022-09-12T11:25:22.388Z,100586.41
2022-09-12T11:30:27.471Z,100581.09
2022-09-12T11:35:31.612Z,100588.16
2022-09-12T11:40:42.390Z,100584.81
2022-09-12T11:45:47.782Z,100576.97
2022-09-12T11:50:50.294Z,100575.91
2022-09-12T11:56:00.304Z,100571.75
2022-09-12T12:01:12.455Z,100568.75
2022-09-12T12:06:19.863Z,100567.63
2022-09-12T12:11:34.179Z,100568.41
2022-09-12T12:16:41.083Z,100550.03
2022-09-12T12:21:45.168Z,100555.63
2022-09-12T12:27:02.238Z,100545.88
2022-09-12T12:32:26.463Z,100546.81
2022-09-12T12:37:55.868Z,100540.97
2022-09-12T12:43:00.740Z,100524.97
2022-09-12T12:48:10.855Z,100522.50
2022-09-12T12:53:20.876Z,100528.47
2022-09-12T12:58:30.574Z,100519.91
2022-09-12T13:03:35.364Z,100514.59
2022-09-12T13:08:41.259Z,100515.00
2022-09-12T13:13:51.176Z,100505.94
2022-09-12T13:18:55.411Z,100506.38
2022-09-12T13:24:02.610Z,100494.69
2022-09-12T13:29:13.005Z,100497.06
2022-09-12T13:34:21.697Z,100488.09
2022-09-12T13:39:27.872Z,100489.06
2022-09-12T13:44:32.863Z,100482.41
2022-09-12T13:49:39.463Z,100480.38
2022-09-12T13:54:45.612Z,100472.50
2022-09-12T13:59:49.870Z,100469.44
2022-09-12T14:05:10.634Z,100465.13
2022-09-12T14:10:17.088Z,100462.22
2022-09-12T14:15:27.248Z,100449.72
2022-09-12T14:20:33.351Z,100454.44
2022-09-12T14:25:41.396Z,100438.66
2022-09-12T14:30:59.215Z,100443.88
2022-09-12T14:36:18.463Z,100433.25
2022-09-12T14:41:27.798Z,100428.91
2022-09-12T14:46:34.495Z,100435.03
2022-09-12T14:51:41.594Z,100433.13
2022-09-12T14:56:53.763Z,100418.41
2022-09-12T15:02:27.505Z,100420.94
2022-09-12T15:07:35.265Z,100415.88
2022-09-12T15:12:37.710Z,100422.63
2022-09-12T15:17:40.122Z,100423.72
2022-09-12T15:22:44.104Z,100420.09
2022-09-12T15:27:46.942Z,100415.19
2022-09-12T15:32:49.435Z,100423.06
2022-09-12T15:37:53.277Z,100419.63
2022-09-12T15:42:55.786Z,100418.72
2022-09-12T15:47:58.785Z,100408.41
2022-09-12T15:53:02.974Z,100417.44
2022-09-12T15:58:07.379Z,100412.78
2022-09-12T16:03:21.902Z,100408.09
2022-09-12T16:08:26.258Z,100393.94
2022-09-12T16:13:28.710Z,100396.13
2022-09-12T16:18:31.460Z,100389.00
2022-09-12T16:23:35.434Z,100383.88
2022-09-12T16:28:37.864Z,100381.59
2022-09-12T16:33:41.244Z,100373.81
2022-09-12T16:38:47.284Z,100365.44
2022-09-12T16:43:50.071Z,100359.66
2022-09-12T16:48:54.399Z,100362.25
2022-09-12T16:53:58.487Z,100353.34
2022-09-12T16:59:01.162Z,100356.53
2022-09-12T17:04:07.020Z,100351.69
2022-09-12T17:09:13.057Z,100351.63
2022-09-12T17:14:15.911Z,100350.94
2022-09-12T17:19:21.004Z,100354.88
2022-09-12T17:24:25.597Z,100355.91
2022-09-12T17:29:28.516Z,100348.72
2022-09-12T17:34:33.247Z,100342.75
2022-09-12T17:39:37.014Z,100350.97
2022-09-12T17:44:39.797Z,100345.03
2022-09-12T17:49:42.332Z,100340.91
2022-09-12T17:54:48.940Z,100337.78
2022-09-12T17:59:53.549Z,100339.09
2022-09-12T18:04:56.341Z,100340.56
2022-09-12T18:10:00.226Z,100328.50
2022-09-12T18:15:04.133Z,100343.19
2022-09-12T18:20:07.385Z,100348.06
2022-09-12T18:25:11.544Z,100342.44
2022-09-12T18:30:21.566Z,100341.81
2022-09-12T18:35:27.182Z,100345.09
2022-09-12T18:40:31.188Z,100346.75
2022-09-12T18:45:34.946Z,100335.72
2022-09-12T18:50:37.723Z,100346.03
2022-09-12T18:55:42.379Z,100333.66
2022-09-12T19:00:48.017Z,100337.03
2022-09-12T19:05:52.441Z,100331.91
2022-09-12T19:10:59.412Z,100325.66
2022-09-12T19:16:03.193Z,100334.63
2022-09-12T19:21:06.887Z,100334.84
2022-09-12T19:26:13.670Z,100324.22
2022-09-12T19:31:18.847Z,100327.00
2022-09-12T19:36:43.757Z,100319.00
2022-09-12T19:41:47.443Z,100321.38
2022-09-12T19:46:49.992Z,100316.84
2022-09-12T19:51:54.635Z,100326.66
2022-09-12T19:56:58.615Z,100322.16
2022-09-12T20:02:01.303Z,100317.72
2022-09-12T20:07:03.803Z,100320.84
2022-09-12T20:12:08.227Z,100306.63
2022-09-12T20:17:10.756Z,100308.75
2022-09-12T20:22:13.254Z,100306.28
2022-09-12T20:27:17.261Z,100315.19
2022-09-12T20:32:19.765Z,100311.66
2022-09-12T20:37:25.193Z,100305.16
2022-09-12T20:42:29.435Z,100308.06
2022-09-12T20:47:32.235Z,100294.97
2022-09-12T20:52:35.000Z,100290.63
2022-09-12T20:57:38.853Z,100287.00
2022-09-12T21:02:41.622Z,100277.75
2022-09-12T21:07:44.286Z,100275.50
2022-09-12T21:12:48.323Z,100265.13
2022-09-12T21:17:52.775Z,100275.03
2022-09-12T21:22:57.936Z,100259.47
2022-09-12T21:28:02.077Z,100243.47
2022-09-12T21:33:04.671Z,100238.59
2022-09-12T21:38:07.656Z,100224.50
2022-09-12T21:43:12.997Z,100224.31
2022-09-12T21:48:15.681Z,100218.03
2022-09-12T21:53:18.358Z,100222.72
2022-09-12T21:58:22.330Z,100222.56
2022-09-12T22:03:26.044Z,100214.16
2022-09-12T22:08:29.815Z,100216.56
2022-09-12T22:13:33.787Z,100201.97
2022-09-12T22:18:38.031Z,100195.84
2022-09-12T22:23:58.181Z,100189.06
2022-09-12T22:29:02.053Z,100194.81
2022-09-12T22:34:05.054Z,100187.75
2022-09-12T22:39:09.830Z,100177.56
2022-09-12T22:44:14.251Z,100171.88
2022-09-12T22:49:16.658Z,100156.50
2022-09-12T22:54:19.090Z,100166.56
2022-09-12T22:59:23.274Z,100172.19
2022-09-12T23:04:25.868Z,100176.44
2022-09-12T23:09:32.075Z,100177.63
2022-09-12T23:14:38.544Z,100167.22
2022-09-12T23:19:41.086Z,100153.91
2022-09-12T23:24:43.559Z,100163.25
2022-09-12T23:29:52.416Z,100161.25
2022-09-12T23:34:55.051Z,100154.81
2022-09-12T23:39:57.523Z,100160.28
2022-09-12T23:45:01.748Z,100129.09
2022-09-12T23:50:04.699Z,100127.59
2022-09-12T23:55:07.985Z,100127.47
